createdAt,value
2016-12-06T00:00:47.999Z,0
2016-12-06T00:01:47.691Z,0
2016-12-06T00:02:47.752Z,0
2016-12-06T00:03:47.393Z,0
2016-12-06T00:04:48.013Z,0
2016-12-06T00:05:47.246Z,0
2016-12-06T00:06:47.901Z,0
2016-12-06T00:07:48.272Z,0
2016-12-06T00:08:47.738Z,0
2016-12-06T00:09:47.455Z,0
2016-12-06T00:10:47.804Z,0
2016-12-06T00:11:47.498Z,0
2016-12-06T00:12:47.789Z,0
2016-12-06T00:13:48.085Z,0
2016-12-06T00:14:48.109Z,0
2016-12-06T00:15:48.487Z,0
2016-12-06T00:16:48.207Z,0
2016-12-06T00:17:48.242Z,0
2016-12-06T00:18:47.861Z,0
2016-12-06T00:19:48.133Z,0
2016-12-06T00:20:47.252Z,0
2016-12-06T00:21:47.564Z,0
2016-12-06T00:22:47.841Z,0
2016-12-06T00:23:47.839Z,0
2016-12-06T00:24:47.635Z,0
2016-12-06T00:25:47.860Z,0
2016-12-06T00:26:48.100Z,0
2016-12-06T00:27:47.554Z,0
2016-12-06T00:28:48.249Z,0
2016-12-06T00:29:47.885Z,0
2016-12-06T00:30:47.578Z,0
2016-12-06T00:31:47.946Z,0
2016-12-06T00:32:47.592Z,0
2016-12-06T00:33:47.961Z,0
2016-12-06T00:34:47.966Z,0
2016-12-06T00:35:48.238Z,0
2016-12-06T00:36:48.243Z,0
2016-12-06T00:37:48.785Z,0
2016-12-06T00:38:47.994Z,0
2016-12-06T00:39:49.042Z,0
2016-12-06T00:40:48.008Z,0
2016-12-06T00:41:48.328Z,0
2016-12-06T00:42:47.662Z,0
2016-12-06T00:43:48.075Z,0
2016-12-06T00:44:47.703Z,0
2016-12-06T00:45:47.992Z,0
2016-12-06T00:46:47.687Z,0
2016-12-06T00:47:48.004Z,0
2016-12-06T00:48:47.708Z,0
2016-12-06T00:49:48.020Z,0
2016-12-06T00:50:49.476Z,0
2016-12-06T00:51:48.347Z,0
2016-12-06T00:52:48.589Z,0
2016-12-06T00:53:48.044Z,0
2016-12-06T00:54:47.742Z,0
2016-12-06T00:55:48.114Z,0
2016-12-06T00:56:48.199Z,0
2016-12-06T00:57:47.811Z,0
2016-12-06T00:58:48.084Z,0
2016-12-06T00:59:48.401Z,0
2016-12-06T01:00:48.425Z,0
2016-12-06T01:01:49.627Z,0
2016-12-06T01:02:47.845Z,0
2016-12-06T01:03:48.820Z,0
2016-12-06T01:04:48.469Z,0
2016-12-06T01:05:48.439Z,0
2016-12-06T01:06:47.823Z,0
2016-12-06T01:07:47.520Z,0
2016-12-06T01:08:48.149Z,0
2016-12-06T01:09:47.893Z,0
2016-12-06T01:10:47.592Z,0
2016-12-06T01:11:48.225Z,0
2016-12-06T01:12:49.676Z,0
2016-12-06T01:13:48.234Z,0
2016-12-06T01:14:48.619Z,0
2016-12-06T01:15:47.983Z,0
2016-12-06T01:16:48.202Z,0
2016-12-06T01:17:47.582Z,0
2016-12-06T01:18:47.954Z,0
2016-12-06T01:19:47.915Z,0
2016-12-06T01:20:47.655Z,0
2016-12-06T01:21:48.294Z,0
2016-12-06T01:22:48.254Z,0
2016-12-06T01:23:49.957Z,0
2016-12-06T01:24:48.572Z,0
2016-12-06T01:25:49.128Z,0
2016-12-06T01:26:48.325Z,0
2016-12-06T01:28:03.805Z,0
2016-12-06T01:28:48.596Z,0
2016-12-06T01:29:48.289Z,0
2016-12-06T01:30:47.753Z,0
2016-12-06T01:31:48.621Z,0
2016-12-06T01:32:47.686Z,0
2016-12-06T01:33:48.322Z,0
2016-12-06T01:34:50.045Z,0
2016-12-06T01:35:48.071Z,0
2016-12-06T01:36:49.553Z,0
2016-12-06T01:37:48.132Z,0
2016-12-06T01:38:48.357Z,0
2016-12-06T01:39:48.049Z,0
2016-12-06T01:40:48.052Z,0
2016-12-06T01:41:48.479Z,0
2016-12-06T01:42:48.794Z,0
2016-12-06T01:43:48.387Z,0
2016-12-06T01:44:48.391Z,0
2016-12-06T01:45:48.084Z,0
2016-12-06T01:46:48.452Z,0
2016-12-06T01:47:49.679Z,0
2016-12-06T01:48:48.418Z,0
2016-12-06T01:49:47.811Z,0
2016-12-06T01:50:48.118Z,0
2016-12-06T01:51:47.965Z,0
2016-12-06T01:52:48.141Z,0
2016-12-06T01:53:48.796Z,0
2016-12-06T01:54:48.559Z,0
2016-12-06T01:55:48.790Z,0
2016-12-06T01:56:48.216Z,0
2016-12-06T01:57:48.982Z,0
2016-12-06T01:58:48.184Z,0
2016-12-06T01:59:48.185Z,0
2016-12-06T02:00:48.605Z,0
2016-12-06T02:01:47.938Z,0
2016-12-06T02:02:48.630Z,0
2016-12-06T02:03:48.574Z,0
2016-12-06T02:04:48.223Z,0
2016-12-06T02:05:48.585Z,0
2016-12-06T02:06:48.557Z,0
2016-12-06T02:07:48.246Z,0
2016-12-06T02:08:48.912Z,0
2016-12-06T02:09:48.695Z,0
2016-12-06T02:10:47.957Z,0
2016-12-06T02:11:48.897Z,0
2016-12-06T02:12:48.957Z,0
2016-12-06T02:13:48.369Z,0
2016-12-06T02:14:48.289Z,0
2016-12-06T02:15:48.663Z,0
2016-12-06T02:16:49.055Z,0
2016-12-06T02:17:48.652Z,0
2016-12-06T02:18:48.797Z,0
2016-12-06T02:19:48.341Z,0
2016-12-06T02:20:48.958Z,0
2016-12-06T02:21:48.385Z,0
2016-12-06T02:22:48.658Z,0
2016-12-06T02:23:49.029Z,0
2016-12-06T02:24:49.029Z,0
2016-12-06T02:25:48.675Z,0
2016-12-06T02:26:48.371Z,0
2016-12-06T02:28:03.620Z,0
2016-12-06T02:28:48.701Z,0
2016-12-06T02:29:49.266Z,0
2016-12-06T02:30:48.709Z,0
2016-12-06T02:31:48.764Z,0
2016-12-06T02:32:49.039Z,0
2016-12-06T02:33:49.148Z,0
2016-12-06T02:34:48.469Z,0
2016-12-06T02:35:48.485Z,0
2016-12-06T02:36:48.436Z,0
2016-12-06T02:37:49.076Z,0
2016-12-06T02:38:50.276Z,0
2016-12-06T02:39:48.464Z,0
2016-12-06T02:40:49.618Z,0
2016-12-06T02:41:48.785Z,0
2016-12-06T02:42:49.279Z,0
2016-12-06T02:43:48.795Z,0
2016-12-06T02:44:48.542Z,0
2016-12-06T02:45:48.975Z,0
2016-12-06T02:46:49.177Z,0
2016-12-06T02:47:48.823Z,0
2016-12-06T02:48:48.832Z,0
2016-12-06T02:49:50.680Z,0
2016-12-06T02:50:49.161Z,0
2016-12-06T02:52:03.516Z,0
2016-12-06T02:52:48.654Z,0
2016-12-06T02:53:48.272Z,0
2016-12-06T02:54:48.876Z,0
2016-12-06T02:55:48.615Z,0
2016-12-06T02:56:48.886Z,0
2016-12-06T02:57:48.582Z,0
2016-12-06T02:58:48.951Z,0
2016-12-06T02:59:48.646Z,0
2016-12-06T03:00:48.848Z,0
2016-12-06T03:01:49.282Z,0
2016-12-06T03:02:50.646Z,0
2016-12-06T03:03:49.373Z,0
2016-12-06T03:04:48.319Z,0
2016-12-06T03:05:48.440Z,0
2016-12-06T03:06:49.351Z,0
2016-12-06T03:07:48.699Z,0
2016-12-06T03:08:48.406Z,0
2016-12-06T03:25:06.019Z,0
2016-12-06T03:26:04.768Z,0
2016-12-06T03:27:05.552Z,0
2016-12-06T03:28:04.522Z,0
2016-12-06T03:29:04.875Z,0
2016-12-06T03:30:04.893Z,0
2016-12-06T03:31:04.319Z,0
2016-12-06T03:32:04.809Z,0
2016-12-06T03:33:04.827Z,0
2016-12-06T03:34:04.833Z,0
2016-12-06T03:35:04.575Z,0
2016-12-06T03:36:06.071Z,0
2016-12-06T03:37:04.843Z,0
2016-12-06T03:38:05.751Z,0
2016-12-06T03:39:04.867Z,0
2016-12-06T03:40:20.383Z,0
2016-12-06T03:41:05.635Z,0
2016-12-06T03:42:04.304Z,0
2016-12-06T03:43:05.249Z,0
2016-12-06T03:44:05.278Z,0
2016-12-06T03:45:04.581Z,0
2016-12-06T03:46:04.955Z,0
2016-12-06T03:47:06.122Z,0
2016-12-06T03:48:04.917Z,0
2016-12-06T03:49:05.991Z,0
2016-12-06T03:50:05.244Z,0
2016-12-06T03:51:05.353Z,0
2016-12-06T03:52:04.971Z,0
2016-12-06T03:53:05.867Z,0
2016-12-06T03:54:04.648Z,0
2016-12-06T03:55:05.334Z,0
2016-12-06T03:56:04.972Z,0
2016-12-06T03:57:05.344Z,0
2016-12-06T03:58:04.677Z,0
2016-12-06T03:59:05.051Z,0
2016-12-06T04:00:06.102Z,0
2016-12-06T04:01:04.432Z,0
2016-12-06T04:02:05.770Z,0
2016-12-06T04:03:05.385Z,0
2016-12-06T04:04:05.030Z,0
2016-12-06T04:05:05.040Z,0
2016-12-06T04:06:04.873Z,0
2016-12-06T04:07:05.055Z,0
2016-12-06T04:08:04.741Z,0
2016-12-06T04:09:04.892Z,0
2016-12-06T04:10:05.070Z,0
2016-12-06T04:11:06.424Z,0
2016-12-06T04:12:04.805Z,0
2016-12-06T04:13:06.140Z,0
2016-12-06T04:14:04.924Z,0
2016-12-06T04:15:05.105Z,0
2016-12-06T04:16:05.581Z,0
2016-12-06T04:17:05.168Z,0
2016-12-06T04:18:05.489Z,0
2016-12-06T04:19:05.452Z,0
2016-12-06T04:20:05.437Z,0
2016-12-06T04:21:05.147Z,0
2016-12-06T04:22:04.887Z,0
2016-12-06T04:23:04.928Z,0
2016-12-06T04:24:04.856Z,0
2016-12-06T04:25:04.862Z,0
2016-12-06T04:26:05.490Z,0
2016-12-06T04:27:05.235Z,0
2016-12-06T04:28:05.292Z,0
2016-12-06T04:29:04.889Z,0
2016-12-06T04:30:05.507Z,0
2016-12-06T04:31:05.627Z,0
2016-12-06T04:32:04.910Z,0
2016-12-06T04:33:05.301Z,0
2016-12-06T04:34:05.284Z,0
2016-12-06T04:35:05.241Z,0
2016-12-06T04:36:05.266Z,0
2016-12-06T04:37:05.259Z,0
2016-12-06T04:38:05.308Z,0
2016-12-06T04:39:05.629Z,0
2016-12-06T04:40:05.032Z,0
2016-12-06T04:41:05.593Z,0
2016-12-06T04:42:05.831Z,0
2016-12-06T04:43:05.371Z,0
2016-12-06T04:44:05.398Z,0
2016-12-06T04:45:05.306Z,0
2016-12-06T04:46:05.144Z,0
2016-12-06T04:47:05.681Z,0
2016-12-06T04:48:05.694Z,0
2016-12-06T04:49:05.667Z,0
2016-12-06T04:50:05.659Z,0
2016-12-06T04:51:05.715Z,0
2016-12-06T04:52:05.743Z,0
2016-12-06T04:53:05.976Z,0
2016-12-06T04:54:05.366Z,0
2016-12-06T04:55:05.310Z,0
2016-12-06T04:56:05.701Z,0
2016-12-06T04:57:06.884Z,0
2016-12-06T04:58:05.136Z,0
2016-12-06T04:59:05.502Z,0
2016-12-06T05:00:05.458Z,0
2016-12-06T05:01:05.105Z,0
2016-12-06T05:02:05.218Z,0
2016-12-06T05:03:05.467Z,0
2016-12-06T05:04:05.737Z,0
2016-12-06T05:05:04.868Z,0
2016-12-06T05:06:05.541Z,0
2016-12-06T05:07:05.556Z,0
2016-12-06T05:08:05.827Z,0
2016-12-06T05:09:05.210Z,0
2016-12-06T05:10:05.815Z,0
2016-12-06T05:11:05.584Z,0
2016-12-06T05:12:05.182Z,0
2016-12-06T05:13:05.186Z,0
2016-12-06T05:14:05.846Z,0
2016-12-06T05:15:06.802Z,0
2016-12-06T05:16:05.306Z,0
2016-12-06T05:17:06.249Z,0
2016-12-06T05:18:05.222Z,0
2016-12-06T05:19:05.851Z,0
2016-12-06T05:20:05.591Z,0
2016-12-06T05:21:05.608Z,0
2016-12-06T05:22:05.976Z,0
2016-12-06T05:23:05.876Z,0
2016-12-06T05:24:05.938Z,0
2016-12-06T05:25:05.991Z,0
2016-12-06T05:26:07.250Z,0
2016-12-06T05:27:05.905Z,0
2016-12-06T05:28:07.005Z,0
2016-12-06T05:29:05.346Z,0
2016-12-06T05:30:05.670Z,0
2016-12-06T05:31:06.007Z,0
2016-12-06T05:32:05.678Z,0
2016-12-06T05:33:05.323Z,0
2016-12-06T05:34:05.118Z,0
2016-12-06T05:35:05.385Z,0
2016-12-06T05:36:05.659Z,0
2016-12-06T05:37:05.593Z,0
2016-12-06T05:38:06.033Z,0
2016-12-06T05:39:07.377Z,0
2016-12-06T05:40:05.734Z,0
2016-12-06T05:41:05.423Z,0
2016-12-06T05:42:05.745Z,0
2016-12-06T05:43:05.437Z,0
2016-12-06T05:44:05.444Z,0
2016-12-06T05:45:05.718Z,0
2016-12-06T05:46:06.035Z,0
2016-12-06T05:47:05.470Z,0
2016-12-06T05:48:06.020Z,0
2016-12-06T05:49:05.742Z,0
2016-12-06T05:50:05.489Z,0
2016-12-06T05:51:05.858Z,0
2016-12-06T05:52:05.812Z,0
2016-12-06T05:53:06.431Z,0
2016-12-06T05:54:05.464Z,0
2016-12-06T05:55:05.831Z,0
2016-12-06T05:56:05.486Z,0
2016-12-06T05:57:05.848Z,0
2016-12-06T05:58:05.491Z,0
2016-12-06T05:59:06.564Z,0
2016-12-06T06:00:05.830Z,0
2016-12-06T06:01:05.873Z,0
2016-12-06T06:02:05.832Z,0
2016-12-06T06:03:06.490Z,0
2016-12-06T06:04:05.896Z,0
2016-12-06T06:05:05.852Z,0
2016-12-06T06:06:05.596Z,0
2016-12-06T06:07:05.867Z,0
2016-12-06T06:08:05.609Z,0
2016-12-06T06:09:05.565Z,0
2016-12-06T06:10:06.757Z,0
2016-12-06T06:11:05.580Z,0
2016-12-06T06:12:05.739Z,0
2016-12-06T06:13:06.518Z,0
2016-12-06T06:14:05.655Z,0
2016-12-06T06:15:05.970Z,0
2016-12-06T06:16:05.930Z,0
2016-12-06T06:17:06.296Z,0
2016-12-06T06:18:06.002Z,0
2016-12-06T06:19:05.638Z,0
2016-12-06T06:20:06.313Z,0
2016-12-06T06:21:07.291Z,0
2016-12-06T06:22:05.656Z,0
2016-12-06T06:23:06.542Z,0
2016-12-06T06:24:05.978Z,0
2016-12-06T06:25:05.725Z,0
2016-12-06T06:26:06.042Z,0
2016-12-06T06:27:05.789Z,0
2016-12-06T06:28:06.011Z,0
2016-12-06T06:29:06.329Z,0
2016-12-06T06:30:06.333Z,0
2016-12-06T06:31:06.040Z,0
2016-12-06T06:32:07.747Z,0
2016-12-06T06:33:05.777Z,0
2016-12-06T06:34:07.014Z,0
2016-12-06T06:35:06.364Z,0
2016-12-06T06:36:05.749Z,0
2016-12-06T06:37:06.119Z,0
2016-12-06T06:38:06.123Z,0
2016-12-06T06:39:05.817Z,0
2016-12-06T06:40:06.187Z,0
2016-12-06T06:41:05.836Z,0
2016-12-06T06:42:05.841Z,0
2016-12-06T06:43:06.126Z,0
2016-12-06T06:44:06.115Z,0
2016-12-06T06:45:07.694Z,0
2016-12-06T06:46:06.133Z,0
2016-12-06T06:47:06.288Z,0
2016-12-06T06:48:05.833Z,0
2016-12-06T06:49:06.200Z,4
2016-12-06T06:50:05.847Z,4
2016-12-06T06:51:06.214Z,0
2016-12-06T06:52:06.527Z,0
2016-12-06T06:53:06.223Z,4
2016-12-06T06:54:05.873Z,4
2016-12-06T06:55:05.879Z,4
2016-12-06T06:56:07.934Z,4
2016-12-06T06:57:06.203Z,0
2016-12-06T06:58:06.215Z,4
2016-12-06T06:59:06.008Z,4
2016-12-06T07:00:05.651Z,4
2016-12-06T07:01:06.540Z,4
2016-12-06T07:02:05.996Z,8
2016-12-06T07:03:06.247Z,8
2016-12-06T07:04:06.249Z,8
2016-12-06T07:05:06.750Z,8
2016-12-06T07:06:05.939Z,8
2016-12-06T07:07:06.198Z,8
2016-12-06T07:08:05.965Z,16
2016-12-06T07:09:06.281Z,16
2016-12-06T07:10:06.361Z,16
2016-12-06T07:11:06.032Z,16
2016-12-06T07:12:06.414Z,20
2016-12-06T07:13:06.048Z,20
2016-12-06T07:14:06.008Z,24
2016-12-06T07:15:06.642Z,28
2016-12-06T07:16:07.284Z,28
2016-12-06T07:17:06.077Z,32
2016-12-06T07:18:06.701Z,28
2016-12-06T07:19:06.354Z,32
2016-12-06T07:20:06.727Z,36
2016-12-06T07:21:06.052Z,40
2016-12-06T07:22:06.689Z,44
2016-12-06T07:23:06.070Z,44
2016-12-06T07:24:06.223Z,48
2016-12-06T07:25:06.082Z,52
2016-12-06T07:26:06.405Z,56
2016-12-06T07:27:07.706Z,56
2016-12-06T07:28:06.464Z,64
2016-12-06T07:29:07.061Z,68
2016-12-06T07:30:06.213Z,72
2016-12-06T07:31:06.176Z,76
2016-12-06T07:32:05.861Z,76
2016-12-06T07:33:06.180Z,84
2016-12-06T07:34:06.141Z,88
2016-12-06T07:35:06.563Z,92
2016-12-06T07:36:06.471Z,96
2016-12-06T07:37:06.211Z,100
2016-12-06T07:38:07.732Z,104
2016-12-06T07:39:06.226Z,108
2016-12-06T07:40:07.510Z,116
2016-12-06T07:41:06.506Z,116
2016-12-06T07:42:06.508Z,124
2016-12-06T07:43:06.838Z,128
2016-12-06T07:44:06.840Z,136
2016-12-06T07:45:05.955Z,140
2016-12-06T07:46:06.543Z,144
2016-12-06T07:47:06.234Z,148
2016-12-06T07:48:06.607Z,156
2016-12-06T07:49:08.582Z,160
2016-12-06T07:50:06.600Z,168
2016-12-06T07:51:07.978Z,168
2016-12-06T07:52:06.594Z,172
2016-12-06T07:53:06.594Z,176
2016-12-06T07:54:06.282Z,180
2016-12-06T07:55:06.609Z,176
2016-12-06T07:56:06.299Z,180
2016-12-06T07:57:06.985Z,184
2016-12-06T07:58:06.682Z,196
2016-12-06T07:59:06.009Z,208
2016-12-06T08:00:06.958Z,220
2016-12-06T08:01:06.960Z,228
2016-12-06T08:02:08.258Z,232
2016-12-06T08:03:06.658Z,236
2016-12-06T08:04:06.667Z,240
2016-12-06T08:05:06.685Z,244
2016-12-06T08:06:06.071Z,248
2016-12-06T08:07:06.690Z,252
2016-12-06T08:08:06.697Z,256
2016-12-06T08:09:07.112Z,264
2016-12-06T08:10:06.463Z,268
2016-12-06T08:11:06.909Z,276
2016-12-06T08:12:06.416Z,276
2016-12-06T08:13:08.718Z,284
2016-12-06T08:14:06.481Z,284
2016-12-06T08:15:07.366Z,288
2016-12-06T08:16:06.548Z,296
2016-12-06T08:17:06.767Z,300
2016-12-06T08:18:06.924Z,304
2016-12-06T08:19:06.469Z,308
2016-12-06T08:20:07.243Z,312
2016-12-06T08:21:06.802Z,320
2016-12-06T08:22:06.955Z,324
2016-12-06T08:23:06.916Z,328
2016-12-06T08:24:06.511Z,336
2016-12-06T08:25:06.890Z,340
2016-12-06T08:26:06.573Z,344
2016-12-06T08:27:07.156Z,360
2016-12-06T08:28:06.547Z,388
2016-12-06T08:29:06.596Z,472
2016-12-06T08:30:07.175Z,628
2016-12-06T08:31:07.744Z,760
2016-12-06T08:32:06.618Z,796
2016-12-06T08:33:07.355Z,776
2016-12-06T08:34:07.256Z,784
2016-12-06T08:35:06.594Z,824
2016-12-06T08:36:06.967Z,852
2016-12-06T08:37:07.057Z,844
2016-12-06T08:38:07.246Z,860
2016-12-06T08:39:06.974Z,908
2016-12-06T08:40:06.627Z,960
2016-12-06T08:41:06.636Z,964
2016-12-06T08:42:07.809Z,988
2016-12-06T08:43:06.390Z,1000
2016-12-06T08:44:07.644Z,996
2016-12-06T08:45:07.037Z,1028
2016-12-06T08:46:07.051Z,1120
2016-12-06T08:47:06.683Z,1196
2016-12-06T08:48:07.001Z,1252
2016-12-06T08:49:06.756Z,1308
2016-12-06T08:50:07.073Z,1400
2016-12-06T08:51:07.097Z,1444
2016-12-06T08:52:06.722Z,1492
2016-12-06T08:53:07.783Z,1512
2016-12-06T08:54:06.472Z,1520
2016-12-06T08:55:07.955Z,1552
2016-12-06T08:56:06.487Z,1572
2016-12-06T08:57:07.124Z,1576
2016-12-06T08:58:07.083Z,1600
2016-12-06T08:59:07.504Z,1536
2016-12-06T09:00:06.834Z,1460
2016-12-06T09:01:07.110Z,1464
2016-12-06T09:02:07.174Z,1468
2016-12-06T09:03:07.218Z,1472
2016-12-06T09:04:06.513Z,1476
2016-12-06T09:05:07.233Z,1480
2016-12-06T09:06:08.335Z,1476
2016-12-06T09:07:06.835Z,1484
2016-12-06T09:08:07.196Z,1484
2016-12-06T09:09:06.850Z,1484
2016-12-06T09:10:07.544Z,1488
2016-12-06T09:11:07.234Z,1480
2016-12-06T09:12:07.236Z,1472
2016-12-06T09:13:06.887Z,1464
2016-12-06T09:14:06.889Z,1452
2016-12-06T09:15:07.316Z,1440
2016-12-06T09:16:07.220Z,1420
2016-12-06T09:17:06.967Z,1396
2016-12-06T09:18:07.335Z,1372
2016-12-06T09:19:08.709Z,1340
2016-12-06T09:20:07.568Z,1300
2016-12-06T09:21:07.308Z,1272
2016-12-06T09:22:07.314Z,1248
2016-12-06T09:23:07.272Z,1228
2016-12-06T09:24:06.966Z,1228
2016-12-06T09:25:07.291Z,1236
2016-12-06T09:26:07.908Z,1220
2016-12-06T09:27:06.997Z,1208
2016-12-06T09:28:07.061Z,1192
2016-12-06T09:29:07.370Z,1184
2016-12-06T09:30:07.385Z,1168
2016-12-06T09:31:07.071Z,1156
2016-12-06T09:32:07.445Z,1160
2016-12-06T09:33:07.401Z,1172
2016-12-06T09:34:07.098Z,1176
2016-12-06T09:35:07.155Z,1188
2016-12-06T09:36:07.784Z,1176
2016-12-06T09:37:07.609Z,1172
2016-12-06T09:38:07.705Z,1188
2016-12-06T09:39:07.390Z,1196
2016-12-06T09:40:07.408Z,1180
2016-12-06T09:41:07.153Z,1164
2016-12-06T09:42:07.160Z,1160
2016-12-06T09:43:07.430Z,1164
2016-12-06T09:44:07.203Z,1168
2016-12-06T09:45:07.621Z,1136
2016-12-06T09:46:07.764Z,1068
2016-12-06T09:47:07.201Z,1068
2016-12-06T09:48:08.531Z,1068
2016-12-06T09:49:07.213Z,1024
2016-12-06T09:50:07.856Z,976
2016-12-06T09:51:07.908Z,964
2016-12-06T09:52:07.246Z,968
2016-12-06T09:53:07.243Z,956
2016-12-06T09:54:07.250Z,940
2016-12-06T09:55:07.568Z,900
2016-12-06T09:56:07.841Z,872
2016-12-06T09:57:07.643Z,864
2016-12-06T09:58:07.597Z,848
2016-12-06T09:59:08.556Z,816
2016-12-06T10:00:08.223Z,792
2016-12-06T10:01:08.094Z,768
2016-12-06T10:02:06.951Z,744
2016-12-06T10:03:07.784Z,708
2016-12-06T10:04:07.641Z,700
2016-12-06T10:05:07.968Z,688
2016-12-06T10:06:07.715Z,676
2016-12-06T10:07:07.311Z,656
2016-12-06T10:08:07.315Z,648
2016-12-06T10:09:07.995Z,644
2016-12-06T10:10:08.927Z,636
2016-12-06T10:11:08.178Z,628
2016-12-06T10:12:08.457Z,616
2016-12-06T10:13:08.042Z,600
2016-12-06T10:14:08.160Z,592
2016-12-06T10:15:08.100Z,584
2016-12-06T10:16:07.683Z,572
2016-12-06T10:17:08.007Z,564
2016-12-06T10:18:07.754Z,560
2016-12-06T10:19:07.394Z,556
2016-12-06T10:20:07.407Z,548
2016-12-06T10:21:07.461Z,544
2016-12-06T10:22:07.763Z,544
2016-12-06T10:23:08.829Z,544
2016-12-06T10:24:07.752Z,540
2016-12-06T10:25:08.507Z,544
2016-12-06T10:26:07.811Z,540
2016-12-06T10:27:08.085Z,540
2016-12-06T10:28:07.831Z,536
2016-12-06T10:29:07.807Z,536
2016-12-06T10:30:07.529Z,532
2016-12-06T10:31:07.863Z,532
2016-12-06T10:32:07.798Z,532
2016-12-06T10:33:07.550Z,528
2016-12-06T10:34:07.254Z,528
2016-12-06T10:35:07.886Z,528
2016-12-06T10:36:07.887Z,528
2016-12-06T10:37:07.848Z,524
2016-12-06T10:38:08.218Z,520
2016-12-06T10:39:07.633Z,524
2016-12-06T10:40:07.552Z,520
2016-12-06T10:41:08.234Z,512
2016-12-06T10:42:07.932Z,516
2016-12-06T10:43:08.601Z,520
2016-12-06T10:44:07.898Z,516
2016-12-06T10:45:08.098Z,520
2016-12-06T10:46:07.912Z,516
2016-12-06T10:47:07.970Z,512
2016-12-06T10:48:07.301Z,512
2016-12-06T10:49:07.987Z,512
2016-12-06T10:50:08.029Z,516
2016-12-06T10:51:07.684Z,516
2016-12-06T10:52:08.005Z,520
2016-12-06T10:53:08.315Z,524
2016-12-06T10:54:09.591Z,524
2016-12-06T10:55:08.290Z,524
2016-12-06T10:56:09.099Z,520
2016-12-06T10:57:07.731Z,524
2016-12-06T10:58:07.686Z,524
2016-12-06T10:59:07.691Z,528
2016-12-06T11:00:07.702Z,528
2016-12-06T11:01:08.387Z,532
2016-12-06T11:02:07.765Z,532
2016-12-06T11:03:08.080Z,524
2016-12-06T11:04:07.780Z,524
2016-12-06T11:05:08.049Z,524
2016-12-06T11:06:07.795Z,520
2016-12-06T11:07:10.332Z,516
2016-12-06T11:08:07.806Z,516
2016-12-06T11:09:08.429Z,516
2016-12-06T11:10:08.086Z,516
2016-12-06T11:11:08.094Z,524
2016-12-06T11:12:07.790Z,520
2016-12-06T11:13:08.108Z,532
2016-12-06T11:14:08.118Z,532
2016-12-06T11:15:08.201Z,532
2016-12-06T11:16:08.162Z,536
2016-12-06T11:17:08.188Z,540
2016-12-06T11:18:10.069Z,536
2016-12-06T11:19:08.155Z,540
2016-12-06T11:20:07.844Z,536
2016-12-06T11:21:08.262Z,540
2016-12-06T11:22:07.908Z,544
2016-12-06T11:23:07.866Z,552
2016-12-06T11:24:08.549Z,548
2016-12-06T11:25:07.885Z,552
2016-12-06T11:26:07.629Z,560
2016-12-06T11:27:08.744Z,556
2016-12-06T11:28:08.579Z,564
2016-12-06T11:29:07.912Z,560
2016-12-06T11:30:07.658Z,560
2016-12-06T11:31:07.973Z,564
2016-12-06T11:32:07.720Z,556
2016-12-06T11:33:08.240Z,556
2016-12-06T11:34:08.046Z,552
2016-12-06T11:35:08.054Z,556
2016-12-06T11:36:08.763Z,556
2016-12-06T11:37:08.021Z,548
2016-12-06T11:38:09.483Z,548
2016-12-06T11:39:08.658Z,544
2016-12-06T11:40:08.711Z,540
2016-12-06T11:41:08.048Z,536
2016-12-06T11:42:08.380Z,532
2016-12-06T11:43:08.374Z,528
2016-12-06T11:44:08.073Z,524
2016-12-06T11:45:07.715Z,528
2016-12-06T11:46:08.350Z,528
2016-12-06T11:47:08.040Z,528
2016-12-06T11:48:08.694Z,524
2016-12-06T11:49:10.304Z,528
2016-12-06T11:50:08.427Z,532
2016-12-06T11:51:09.276Z,532
2016-12-06T11:52:08.707Z,524
2016-12-06T11:53:08.503Z,520
2016-12-06T11:54:07.826Z,516
2016-12-06T11:55:08.107Z,520
2016-12-06T11:56:08.836Z,520
2016-12-06T11:57:08.124Z,516
2016-12-06T11:58:08.453Z,508
2016-12-06T11:59:08.807Z,516
2016-12-06T12:00:08.866Z,508
2016-12-06T12:01:08.463Z,500
2016-12-06T12:02:10.306Z,496
2016-12-06T12:03:08.792Z,492
2016-12-06T12:04:08.534Z,500
2016-12-06T12:05:08.884Z,492
2016-12-06T12:06:08.906Z,484
2016-12-06T12:07:08.502Z,488
2016-12-06T12:08:08.249Z,488
2016-12-06T12:09:08.577Z,484
2016-12-06T12:10:08.578Z,484
2016-12-06T12:11:08.765Z,480
2016-12-06T12:12:08.593Z,476
2016-12-06T12:13:08.911Z,468
2016-12-06T12:14:08.711Z,472
2016-12-06T12:15:08.613Z,468
2016-12-06T12:16:08.567Z,460
2016-12-06T12:17:07.961Z,460
2016-12-06T12:18:08.586Z,452
2016-12-06T12:19:08.695Z,452
2016-12-06T12:20:08.699Z,448
2016-12-06T12:21:09.018Z,448
2016-12-06T12:22:09.585Z,440
2016-12-06T12:23:08.366Z,440
2016-12-06T12:24:09.261Z,436
2016-12-06T12:25:08.623Z,440
2016-12-06T12:26:08.381Z,436
2016-12-06T12:27:08.961Z,428
2016-12-06T12:28:09.067Z,432
2016-12-06T12:29:09.032Z,428
2016-12-06T12:30:09.112Z,436
2016-12-06T12:31:09.046Z,428
2016-12-06T12:32:09.050Z,424
2016-12-06T12:33:10.182Z,428
2016-12-06T12:34:08.752Z,424
2016-12-06T12:35:09.666Z,424
2016-12-06T12:36:09.083Z,424
2016-12-06T12:37:08.459Z,424
2016-12-06T12:38:09.148Z,420
2016-12-06T12:39:08.787Z,424
2016-12-06T12:40:09.489Z,420
2016-12-06T12:41:08.805Z,420
2016-12-06T12:42:08.814Z,424
2016-12-06T12:43:08.822Z,420
2016-12-06T12:44:10.916Z,416
2016-12-06T12:45:08.834Z,412
2016-12-06T12:46:10.358Z,412
2016-12-06T12:47:08.807Z,416
2016-12-06T12:48:08.810Z,424
2016-12-06T12:49:08.859Z,420
2016-12-06T12:50:09.132Z,420
2016-12-06T12:51:09.137Z,416
2016-12-06T12:52:08.836Z,412
2016-12-06T12:53:09.303Z,408
2016-12-06T12:54:09.228Z,408
2016-12-06T12:55:09.158Z,408
2016-12-06T12:56:08.321Z,408
2016-12-06T12:57:08.923Z,404
2016-12-06T12:58:08.879Z,404
2016-12-06T12:59:08.577Z,400
2016-12-06T13:00:08.893Z,396
2016-12-06T13:01:08.689Z,400
2016-12-06T13:02:08.957Z,392
2016-12-06T13:03:08.656Z,396
2016-12-06T13:04:09.558Z,388
2016-12-06T13:05:09.317Z,392
2016-12-06T13:06:09.813Z,392
2016-12-06T13:07:09.342Z,392
2016-12-06T13:08:09.104Z,392
2016-12-06T13:09:08.957Z,388
2016-12-06T13:10:08.702Z,392
2016-12-06T13:11:09.338Z,388
2016-12-06T13:12:08.717Z,388
2016-12-06T13:13:09.352Z,384
2016-12-06T13:14:09.000Z,380
2016-12-06T13:15:08.690Z,384
2016-12-06T13:16:09.372Z,380
2016-12-06T13:17:10.722Z,380
2016-12-06T13:18:09.639Z,384
2016-12-06T13:19:09.993Z,380
2016-12-06T13:20:08.791Z,384
2016-12-06T13:21:09.046Z,380
2016-12-06T13:22:09.441Z,376
2016-12-06T13:23:09.670Z,376
2016-12-06T13:24:09.072Z,372
2016-12-06T13:25:09.186Z,368
2016-12-06T13:26:09.473Z,368
2016-12-06T13:27:08.777Z,364
2016-12-06T13:28:09.140Z,364
2016-12-06T13:29:09.107Z,360
2016-12-06T13:30:08.850Z,360
2016-12-06T13:31:08.858Z,360
2016-12-06T13:32:09.487Z,360
2016-12-06T13:33:08.871Z,356
2016-12-06T13:34:09.459Z,356
2016-12-06T13:35:08.890Z,352
2016-12-06T13:36:08.946Z,352
2016-12-06T13:37:09.310Z,348
2016-12-06T13:38:08.596Z,348
2016-12-06T13:39:09.363Z,348
2016-12-06T13:40:08.970Z,344
2016-12-06T13:41:09.501Z,340
2016-12-06T13:42:09.252Z,340
2016-12-06T13:43:08.628Z,336
2016-12-06T13:44:09.528Z,340
2016-12-06T13:45:08.596Z,336
2016-12-06T13:46:09.172Z,332
2016-12-06T13:47:09.597Z,332
2016-12-06T13:48:10.264Z,328
2016-12-06T13:49:08.679Z,328
2016-12-06T13:50:09.848Z,324
2016-12-06T13:51:08.949Z,320
2016-12-06T13:52:09.530Z,316
2016-12-06T13:53:09.068Z,316
2016-12-06T13:54:09.376Z,316
2016-12-06T13:55:09.292Z,312
2016-12-06T13:56:09.022Z,308
2016-12-06T13:57:09.048Z,308
2016-12-06T13:58:08.829Z,308
2016-12-06T13:59:09.421Z,300
2016-12-06T14:00:09.385Z,300
2016-12-06T14:01:10.575Z,296
2016-12-06T14:02:09.086Z,296
2016-12-06T14:03:10.269Z,292
2016-12-06T14:04:09.359Z,288
2016-12-06T14:05:09.468Z,288
2016-12-06T14:06:09.382Z,284
2016-12-06T14:07:09.074Z,280
2016-12-06T14:08:09.447Z,276
2016-12-06T14:09:09.772Z,276
2016-12-06T14:10:09.692Z,276
2016-12-06T14:11:09.463Z,272
2016-12-06T14:12:09.093Z,268
2016-12-06T14:13:09.486Z,268
2016-12-06T14:14:09.639Z,264
2016-12-06T14:15:09.135Z,264
2016-12-06T14:16:09.242Z,260
2016-12-06T14:17:08.834Z,256
2016-12-06T14:18:09.203Z,256
2016-12-06T14:19:08.848Z,236
2016-12-06T14:20:09.479Z,236
2016-12-06T14:21:10.491Z,236
2016-12-06T14:22:09.259Z,232
2016-12-06T14:23:09.898Z,228
2016-12-06T14:24:09.255Z,224
2016-12-06T14:25:09.266Z,220
2016-12-06T14:26:09.579Z,220
2016-12-06T14:27:10.123Z,216
2016-12-06T14:28:09.588Z,216
2016-12-06T14:29:09.703Z,212